Terminal Aerodrome Forecast
Issued by NWS

Home | Current Version | Previous Version | Graphics & Text | Print | Product List | Glossary On
Versions: 1 2 3 4 5 6 7 8 9 10 11 12
000
FTUS43 KICT 011720
TAFRSL
TAF
KRSL 011720Z 0118/0218 VRB06KT P6SM FEW050
     FM012000 14008KT P6SM SCT060
     FM020500 18008KT P6SM SCT200=

USA.gov is the U.S. government's official web portal to all federal, state and local government web resources and services.